Time;durP1;ratioP1;P1;durP2;ratioP2;P2;SDS_P1;SDS_P2;PMS_P1;PMS_P2;Temp;Humidity;BMP_temperature;BMP_pressure;BME280_temperature;BME280_humidity;BME280_pressure;Samples;Min_cycle;Max_cycle;Signal;HPM_P1;HPM_P2
2024/02/04 00:00:28;;;;;;;20.77;14.40;;;10.60;99.90;;;;;;5034128;28;20031;-76
2024/02/04 00:02:54;;;;;;;23.65;15.02;;;10.60;99.90;;;;;;5033935;28;20359;-78
2024/02/04 00:05:20;;;;;;;23.15;14.73;;;10.60;99.90;;;;;;5032598;28;20029;-78
2024/02/04 00:07:46;;;;;;;24.83;14.35;;;10.50;99.90;;;;;;5033919;28;20363;-77
2024/02/04 00:10:12;;;;;;;22.25;14.40;;;10.50;99.90;;;;;;5033760;28;20029;-77
2024/02/04 00:12:39;;;;;;;23.40;15.25;;;10.50;99.90;;;;;;5033464;28;20442;-77
2024/02/04 00:15:05;;;;;;;25.35;16.15;;;10.50;99.90;;;;;;5033188;28;20025;-77
2024/02/04 00:17:33;;;;;;;25.52;16.80;;;10.50;99.90;;;;;;5033581;28;20102;-78
2024/02/04 00:19:59;;;;;;;32.60;18.48;;;10.40;99.90;;;;;;5032245;28;20385;-77
2024/02/04 00:22:25;;;;;;;26.23;17.08;;;10.40;99.90;;;;;;5027656;28;20014;-78
2024/02/04 00:24:51;;;;;;;33.58;18.45;;;10.40;99.90;;;;;;5022063;28;20496;-82
2024/02/04 00:27:16;;;;;;;31.33;17.95;;;10.40;99.90;;;;;;5033274;28;20028;-83
2024/02/04 00:29:42;;;;;;;31.65;20.40;;;10.40;99.90;;;;;;5034650;28;20036;-83
2024/02/04 00:32:07;;;;;;;40.75;22.73;;;10.40;99.90;;;;;;5033457;28;20036;-83
2024/02/04 00:34:33;;;;;;;35.73;22.27;;;10.40;99.90;;;;;;5033478;28;20033;-82
2024/02/04 00:37:00;;;;;;;44.13;25.08;;;10.40;99.90;;;;;;5033922;28;20029;-82
2024/02/04 00:39:26;;;;;;;46.25;25.92;;;10.40;99.90;;;;;;5033449;28;20100;-81
2024/02/04 00:41:51;;;;;;;50.55;26.25;;;10.40;99.90;;;;;;5033136;28;20101;-82
2024/02/04 00:44:17;;;;;;;46.13;26.90;;;10.40;99.90;;;;;;5032218;28;20081;-84
2024/02/04 00:46:44;;;;;;;45.50;27.70;;;10.40;99.90;;;;;;5031562;28;20525;-88
2024/02/04 00:49:09;;;;;;;45.80;26.27;;;10.40;99.90;;;;;;5032043;28;20108;-80
2024/02/04 00:51:35;;;;;;;49.63;27.75;;;10.40;99.90;;;;;;5032919;28;20096;-78
2024/02/04 00:54:01;;;;;;;49.13;26.52;;;10.40;99.90;;;;;;5033019;28;20381;-78
2024/02/04 00:56:26;;;;;;;50.17;29.13;;;10.40;99.90;;;;;;5032548;28;20025;-78
2024/02/04 00:58:52;;;;;;;52.08;28.67;;;10.40;99.90;;;;;;5033027;28;20113;-78
2024/02/04 01:01:19;;;;;;;54.83;26.58;;;10.40;99.90;;;;;;5031564;28;20128;-78
2024/02/04 01:03:45;;;;;;;53.00;27.00;;;10.40;99.90;;;;;;5032987;28;20017;-78
2024/02/04 01:06:10;;;;;;;52.47;27.90;;;10.40;99.90;;;;;;5032661;28;20048;-78
2024/02/04 01:08:37;;;;;;;58.60;27.98;;;10.40;99.90;;;;;;5032916;28;20022;-78
2024/02/04 01:11:06;;;;;;;56.38;26.65;;;10.40;99.90;;;;;;5031190;28;20024;-78
2024/02/04 01:13:32;;;;;;;52.38;27.27;;;10.40;99.90;;;;;;5032750;28;20163;-79
2024/02/04 01:15:57;;;;;;;49.90;25.67;;;10.40;99.90;;;;;;5033037;28;20525;-78
2024/02/04 01:18:23;;;;;;;43.10;24.75;;;10.40;99.90;;;;;;5031496;28;20021;-78
2024/02/04 01:20:49;;;;;;;56.08;28.02;;;10.40;99.90;;;;;;5033025;28;20088;-78
2024/02/04 01:23:17;;;;;;;44.80;26.00;;;10.40;99.90;;;;;;5033326;28;20102;-79
2024/02/04 01:25:43;;;;;;;52.23;27.17;;;10.40;99.90;;;;;;5032696;28;20017;-79
2024/02/04 01:28:09;;;;;;;43.63;25.30;;;10.40;99.90;;;;;;5036580;28;20028;-79
2024/02/04 01:30:35;;;;;;;49.15;26.45;;;10.40;99.90;;;;;;5035914;28;20029;-79
2024/02/04 01:33:00;;;;;;;43.63;26.55;;;10.40;99.90;;;;;;5036608;28;20100;-78
2024/02/04 01:35:26;;;;;;;55.20;26.65;;;10.50;99.90;;;;;;5035384;28;20022;-78
2024/02/04 01:37:52;;;;;;;50.63;23.60;;;10.40;99.90;;;;;;5035128;28;20021;-78
2024/02/04 01:40:17;;;;;;;41.78;23.73;;;10.50;99.90;;;;;;5034816;28;20021;-78
2024/02/04 01:42:43;;;;;;;42.67;23.20;;;10.50;99.90;;;;;;5036482;28;20389;-78
2024/02/04 01:45:09;;;;;;;51.47;25.10;;;10.50;99.90;;;;;;5036349;28;20054;-79
2024/02/04 01:47:35;;;;;;;52.55;24.33;;;10.50;99.90;;;;;;5034602;28;20428;-78
2024/02/04 01:50:02;;;;;;;46.42;24.67;;;10.50;99.90;;;;;;5035035;28;20018;-77
2024/02/04 01:52:30;;;;;;;43.22;22.80;;;10.50;99.90;;;;;;5036161;28;20472;-78
2024/02/04 01:54:56;;;;;;;50.00;22.42;;;10.50;99.90;;;;;;5036167;28;20036;-78
2024/02/04 01:57:23;;;;;;;45.97;22.10;;;10.50;99.90;;;;;;5036324;28;20382;-78
2024/02/04 01:59:51;;;;;;;40.95;21.25;;;10.50;99.90;;;;;;5036440;28;20539;-78
2024/02/04 02:02:17;;;;;;;39.80;20.85;;;10.50;99.90;;;;;;5034767;28;20026;-78
2024/02/04 02:04:44;;;;;;;45.90;20.67;;;10.50;99.90;;;;;;5036543;28;20036;-79
2024/02/04 02:07:10;;;;;;;40.15;21.05;;;10.50;99.90;;;;;;5036059;28;20022;-78
2024/02/04 02:09:35;;;;;;;40.78;20.05;;;10.50;99.90;;;;;;5034685;28;20034;-78
2024/02/04 02:12:39;;;;;;;36.60;18.35;;;10.50;99.90;;;;;;5036008;28;20076;-78
2024/02/04 02:15:21;;;;;;;38.88;19.48;;;10.50;99.90;;;;;;5007897;28;20034;-78
2024/02/04 02:18:03;;;;;;;36.97;20.05;;;10.50;99.90;;;;;;5035487;28;20026;-78
2024/02/04 02:21:00;;;;;;;33.85;19.05;;;10.50;99.90;;;;;;5035857;28;20018;-79
2024/02/04 02:23:34;;;;;;;39.60;18.83;;;10.50;99.90;;;;;;5035110;28;20046;-78
2024/02/04 02:26:00;;;;;;;33.65;18.17;;;10.60;99.90;;;;;;5034181;28;20037;-79
2024/02/04 02:28:25;;;;;;;36.45;19.83;;;10.60;99.90;;;;;;5035773;28;20097;-79
2024/02/04 02:30:51;;;;;;;41.42;19.60;;;10.50;99.90;;;;;;5035775;28;20107;-79
2024/02/04 02:33:17;;;;;;;38.88;18.83;;;10.60;99.90;;;;;;5035763;28;20546;-79
2024/02/04 02:35:50;;;;;;;31.75;17.33;;;10.60;99.90;;;;;;5035111;28;20022;-79
2024/02/04 02:38:25;;;;;;;37.45;18.05;;;10.60;99.90;;;;;;5034819;28;20040;-79
2024/02/04 02:41:03;;;;;;;32.45;18.00;;;10.60;99.90;;;;;;5034207;28;20017;-79
2024/02/04 02:43:30;;;;;;;31.23;16.70;;;10.60;99.90;;;;;;5035502;28;20046;-78
2024/02/04 02:45:56;;;;;;;36.42;18.48;;;10.60;99.90;;;;;;5034158;28;20021;-78
2024/02/04 02:48:23;;;;;;;33.20;16.13;;;10.60;99.90;;;;;;5034638;28;20065;-79
2024/02/04 02:50:49;;;;;;;35.83;16.52;;;10.60;99.90;;;;;;5035213;28;20026;-79
2024/02/04 02:53:15;;;;;;;28.67;15.40;;;10.60;99.90;;;;;;5033662;28;20026;-78
2024/02/04 02:55:41;;;;;;;33.50;17.30;;;10.60;99.90;;;;;;5034958;28;20032;-78
2024/02/04 02:58:07;;;;;;;28.65;17.27;;;10.60;99.90;;;;;;5033635;28;20026;-78
2024/02/04 03:00:33;;;;;;;35.67;17.23;;;10.60;99.90;;;;;;5033832;28;20017;-79
2024/02/04 03:02:59;;;;;;;35.10;17.73;;;10.60;99.90;;;;;;5033822;28;20504;-78
2024/02/04 03:05:24;;;;;;;29.77;15.88;;;10.60;99.90;;;;;;5034529;28;20425;-79
2024/02/04 03:07:50;;;;;;;36.08;18.27;;;10.50;99.90;;;;;;5033473;28;20424;-79
2024/02/04 03:10:16;;;;;;;33.45;16.77;;;10.50;99.90;;;;;;5034807;28;20025;-78
2024/02/04 03:12:41;;;;;;;33.55;16.73;;;10.60;99.90;;;;;;5034687;28;20029;-78
2024/02/04 03:15:07;;;;;;;35.83;16.67;;;10.50;99.90;;;;;;5034775;28;20040;-79
2024/02/04 03:17:33;;;;;;;40.40;18.70;;;10.50;99.90;;;;;;5034903;28;20173;-79
2024/02/04 03:19:58;;;;;;;30.02;16.10;;;10.50;99.90;;;;;;5034789;28;20445;-79
2024/02/04 03:22:24;;;;;;;41.03;20.85;;;10.50;99.90;;;;;;5034153;28;20033;-79
2024/02/04 03:24:50;;;;;;;36.03;19.83;;;10.50;99.90;;;;;;5033118;28;20056;-79
2024/02/04 03:27:18;;;;;;;39.17;21.30;;;10.40;99.90;;;;;;5034767;28;20032;-79
2024/02/04 03:29:44;;;;;;;43.85;22.23;;;10.40;99.90;;;;;;5034721;28;20037;-79
2024/02/04 03:32:13;;;;;;;44.50;24.67;;;10.40;99.90;;;;;;5034322;28;20432;-79
2024/02/04 03:34:41;;;;;;;55.00;28.55;;;10.40;99.90;;;;;;5034073;28;20548;-78
2024/02/04 03:37:07;;;;;;;55.05;29.98;;;10.40;99.90;;;;;;5032726;28;20036;-79
2024/02/04 03:39:32;;;;;;;53.15;27.48;;;10.40;99.90;;;;;;5033030;28;20037;-79
2024/02/04 03:41:58;;;;;;;57.03;27.02;;;10.40;99.90;;;;;;5034464;28;20075;-78
2024/02/04 03:44:24;;;;;;;41.67;25.15;;;10.40;99.90;;;;;;5032893;28;20037;-79
2024/02/04 03:46:50;;;;;;;40.25;22.15;;;10.40;99.90;;;;;;5032855;28;20045;-80
2024/02/04 03:49:16;;;;;;;33.83;19.63;;;10.40;99.90;;;;;;5033084;28;20493;-78
2024/02/04 03:51:42;;;;;;;37.83;18.63;;;10.40;99.90;;;;;;5033937;28;20026;-79
2024/02/04 03:54:08;;;;;;;35.42;17.90;;;10.30;99.90;;;;;;5034031;28;20040;-78
2024/02/04 03:56:33;;;;;;;28.65;15.88;;;10.40;99.90;;;;;;5032746;28;20071;-78
2024/02/04 03:58:59;;;;;;;30.52;16.35;;;10.30;99.90;;;;;;5033699;28;20029;-79
2024/02/04 04:01:25;;;;;;;26.38;14.15;;;10.30;99.90;;;;;;5015862;28;20048;-78
2024/02/04 04:03:50;;;;;;;24.33;14.57;;;10.30;99.90;;;;;;5013601;28;20492;-78
2024/02/04 04:06:16;;;;;;;26.88;14.57;;;10.30;99.90;;;;;;5013729;28;20160;-79
2024/02/04 04:08:42;;;;;;;25.48;14.38;;;10.30;99.90;;;;;;5013998;28;20026;-80
2024/02/04 04:11:09;;;;;;;25.88;13.05;;;10.30;99.90;;;;;;5014231;28;20429;-80
2024/02/04 04:13:35;;;;;;;23.75;13.27;;;10.30;99.90;;;;;;5013131;28;20478;-79
2024/02/04 04:16:01;;;;;;;31.37;15.90;;;10.30;99.90;;;;;;5014387;28;20068;-78
2024/02/04 04:18:27;;;;;;;27.00;14.77;;;10.30;99.90;;;;;;5012276;28;20367;-79
2024/02/04 04:20:52;;;;;;;29.73;15.93;;;10.20;99.90;;;;;;5029148;28;20022;-79
2024/02/04 04:23:18;;;;;;;29.13;15.00;;;10.30;99.90;;;;;;5013804;28;20034;-79
2024/02/04 04:25:44;;;;;;;30.75;14.82;;;10.30;99.90;;;;;;5013923;28;20364;-79
2024/02/04 04:28:09;;;;;;;29.98;14.98;;;10.30;99.90;;;;;;5013582;28;20029;-79
2024/02/04 04:30:35;;;;;;;27.02;15.65;;;10.30;99.90;;;;;;5012348;28;20048;-78
2024/02/04 04:33:01;;;;;;;32.70;14.35;;;10.20;99.90;;;;;;5013463;28;20018;-78
2024/02/04 04:35:26;;;;;;;27.48;14.18;;;10.30;99.90;;;;;;5013365;28;20057;-78
2024/02/04 04:37:52;;;;;;;27.90;14.45;;;10.30;99.90;;;;;;5013555;28;20064;-78
2024/02/04 04:40:18;;;;;;;26.48;14.32;;;10.20;99.90;;;;;;5013500;28;20056;-78
2024/02/04 04:42:44;;;;;;;26.52;14.57;;;10.20;99.90;;;;;;5028728;28;20034;-78
2024/02/04 04:45:10;;;;;;;33.60;14.80;;;10.20;99.90;;;;;;5028580;28;20525;-78
2024/02/04 04:47:36;;;;;;;30.88;16.40;;;10.20;99.90;;;;;;5013013;28;20018;-79
2024/02/04 04:50:02;;;;;;;27.63;15.68;;;10.20;99.90;;;;;;5013422;28;20553;-78
2024/02/04 04:52:28;;;;;;;26.73;14.23;;;10.20;99.90;;;;;;5028883;28;20440;-79
2024/02/04 04:54:55;;;;;;;32.28;16.25;;;10.20;99.90;;;;;;5011752;28;20141;-78
2024/02/04 04:57:20;;;;;;;33.97;16.33;;;10.20;99.90;;;;;;5013205;28;20152;-79
2024/02/04 04:59:46;;;;;;;33.13;16.67;;;10.20;99.90;;;;;;5013484;28;20101;-78
2024/02/04 05:02:11;;;;;;;38.45;16.77;;;10.20;99.90;;;;;;5011832;28;20489;-78
2024/02/04 05:04:37;;;;;;;33.08;15.85;;;10.10;99.90;;;;;;5012919;28;20025;-78
2024/02/04 05:07:03;;;;;;;30.40;14.87;;;10.10;99.90;;;;;;5013195;28;20105;-79
2024/02/04 05:09:29;;;;;;;27.30;15.47;;;10.10;99.90;;;;;;5011755;28;20109;-79
2024/02/04 05:11:54;;;;;;;29.43;16.20;;;10.10;99.90;;;;;;5011972;28;20105;-78
2024/02/04 05:14:21;;;;;;;37.33;17.13;;;10.00;99.90;;;;;;5013156;28;20381;-78
2024/02/04 05:16:47;;;;;;;25.90;14.80;;;10.00;99.90;;;;;;5011562;28;20025;-78
2024/02/04 05:19:12;;;;;;;28.77;14.53;;;10.00;99.90;;;;;;5011222;28;20018;-79
2024/02/04 05:21:40;;;;;;;28.77;14.05;;;10.00;99.90;;;;;;5013124;28;20022;-79
2024/02/04 05:24:05;;;;;;;26.55;13.82;;;9.90;99.90;;;;;;5011859;28;20486;-78
2024/02/04 05:26:31;;;;;;;25.03;12.97;;;9.90;99.90;;;;;;5017046;28;20075;-78
2024/02/04 05:28:57;;;;;;;26.23;13.53;;;9.90;99.90;;;;;;5032623;28;20469;-78
2024/02/04 05:31:23;;;;;;;25.53;12.67;;;9.90;99.90;;;;;;5032330;28;20021;-79
2024/02/04 05:33:48;;;;;;;23.73;12.60;;;9.90;99.90;;;;;;5025593;28;20021;-79
2024/02/04 05:36:14;;;;;;;25.47;11.90;;;9.90;99.90;;;;;;5016553;28;20025;-78
2024/02/04 05:38:43;;;;;;;26.30;11.93;;;9.90;99.90;;;;;;5021625;28;20025;-79
2024/02/04 05:41:09;;;;;;;27.70;12.45;;;9.90;99.90;;;;;;5022138;28;20024;-79
2024/02/04 05:43:35;;;;;;;23.40;12.00;;;9.90;99.90;;;;;;5012530;28;20038;-78
2024/02/04 05:46:00;;;;;;;26.90;13.30;;;9.90;99.90;;;;;;5011241;28;20385;-79
2024/02/04 05:48:26;;;;;;;27.63;12.20;;;9.90;99.90;;;;;;5010863;28;20021;-78
2024/02/04 05:50:51;;;;;;;22.83;12.02;;;9.90;99.90;;;;;;5012925;28;20026;-78
2024/02/04 05:53:17;;;;;;;22.63;11.37;;;9.90;99.90;;;;;;5012725;28;20036;-78
2024/02/04 05:55:43;;;;;;;20.85;11.80;;;9.90;99.90;;;;;;5012500;28;20097;-78
2024/02/04 05:58:10;;;;;;;22.60;13.13;;;9.90;99.90;;;;;;5012182;28;20073;-79
2024/02/04 06:00:36;;;;;;;25.95;12.90;;;9.80;99.90;;;;;;5012019;28;20389;-79
2024/02/04 06:03:01;;;;;;;24.58;13.15;;;9.80;99.90;;;;;;5012554;28;20113;-78
2024/02/04 06:05:27;;;;;;;23.60;13.23;;;9.80;99.90;;;;;;5012760;28;20034;-79
2024/02/04 06:07:53;;;;;;;26.47;14.17;;;9.80;99.90;;;;;;5012921;28;20030;-78
2024/02/04 06:10:18;;;;;;;30.60;13.73;;;9.90;99.90;;;;;;5016246;28;20459;-78
2024/02/04 06:12:45;;;;;;;28.20;14.00;;;9.80;99.90;;;;;;5020175;28;20100;-78
2024/02/04 06:15:15;;;;;;;26.65;13.70;;;9.80;99.90;;;;;;5034503;28;20017;-78
2024/02/04 06:17:41;;;;;;;30.10;13.87;;;9.90;99.90;;;;;;5035915;28;20040;-79
2024/02/04 06:20:07;;;;;;;28.10;14.05;;;9.90;99.90;;;;;;5035750;28;20422;-78
2024/02/04 06:22:35;;;;;;;25.90;12.90;;;9.90;99.90;;;;;;5035688;28;20478;-78
2024/02/04 06:25:01;;;;;;;30.63;14.83;;;9.90;99.90;;;;;;5035445;28;20028;-78
2024/02/04 06:27:26;;;;;;;30.17;15.93;;;9.90;99.90;;;;;;5035606;28;20029;-78
2024/02/04 06:29:52;;;;;;;28.53;15.27;;;9.90;99.90;;;;;;5035390;28;20367;-78
2024/02/04 06:32:20;;;;;;;28.80;14.90;;;9.90;99.90;;;;;;5035337;28;20032;-78
2024/02/04 06:34:46;;;;;;;30.43;17.47;;;9.90;99.90;;;;;;5035461;28;20026;-79
2024/02/04 06:37:12;;;;;;;35.33;18.03;;;9.90;99.90;;;;;;5035451;28;20032;-79
2024/02/04 06:39:38;;;;;;;32.83;19.20;;;9.80;99.90;;;;;;5035506;28;20104;-79
2024/02/04 06:42:04;;;;;;;36.90;21.80;;;9.90;99.90;;;;;;5035215;28;20022;-79
2024/02/04 06:44:29;;;;;;;41.50;23.67;;;9.80;99.90;;;;;;5034910;28;20081;-79
2024/02/04 06:46:55;;;;;;;42.00;24.07;;;9.90;99.90;;;;;;5035226;28;20029;-80
2024/02/04 06:49:21;;;;;;;44.97;24.57;;;9.80;99.90;;;;;;5035402;28;20084;-79
2024/02/04 06:51:47;;;;;;;45.08;24.90;;;9.80;99.90;;;;;;5035411;28;20500;-80
2024/02/04 06:54:13;;;;;;;39.77;22.83;;;9.80;99.90;;;;;;5035669;28;20032;-80
2024/02/04 06:56:39;;;;;;;44.45;25.42;;;9.90;99.90;;;;;;5033855;28;20030;-78
2024/02/04 06:59:05;;;;;;;49.67;26.13;;;9.90;99.90;;;;;;5034454;28;20025;-78
2024/02/04 07:01:31;;;;;;;41.03;26.45;;;9.90;99.90;;;;;;5035234;28;20075;-78
2024/02/04 07:03:56;;;;;;;39.47;25.13;;;9.90;99.90;;;;;;5035197;28;20104;-78
2024/02/04 07:06:22;;;;;;;51.30;25.97;;;9.90;99.90;;;;;;5034948;28;20472;-78
2024/02/04 07:08:48;;;;;;;38.00;23.97;;;9.90;99.90;;;;;;5034806;28;20026;-79
2024/02/04 07:11:13;;;;;;;46.67;24.93;;;9.90;99.90;;;;;;5034819;28;20028;-79
2024/02/04 07:13:39;;;;;;;40.90;23.60;;;9.90;99.90;;;;;;5034751;28;20374;-78
2024/02/04 07:16:05;;;;;;;45.00;24.93;;;9.90;99.90;;;;;;5033402;28;20021;-79
2024/02/04 07:18:31;;;;;;;43.17;22.73;;;9.90;99.90;;;;;;5034647;28;20025;-79
2024/02/04 07:20:56;;;;;;;38.27;23.53;;;9.90;99.90;;;;;;5034417;28;20021;-79
2024/02/04 07:23:22;;;;;;;41.00;22.43;;;9.90;99.90;;;;;;5034632;28;20034;-80
2024/02/04 07:25:48;;;;;;;39.90;22.47;;;9.90;99.90;;;;;;5033713;28;20037;-80
2024/02/04 07:28:13;;;;;;;40.28;22.58;;;9.90;99.90;;;;;;5032859;28;20053;-79
2024/02/04 07:30:39;;;;;;;43.60;22.33;;;9.90;99.90;;;;;;5032909;28;20500;-80
2024/02/04 07:33:05;;;;;;;40.60;20.40;;;9.90;99.90;;;;;;5034527;28;20021;-80
2024/02/04 07:35:32;;;;;;;35.08;19.75;;;9.90;99.90;;;;;;5033218;28;20018;-78
2024/02/04 07:37:57;;;;;;;32.63;19.37;;;9.90;99.90;;;;;;5034517;28;20065;-80
2024/02/04 07:40:23;;;;;;;44.95;22.50;;;10.00;99.90;;;;;;5031361;28;20580;-80
2024/02/04 07:42:49;;;;;;;34.67;19.93;;;10.00;99.90;;;;;;5022652;28;20141;-79
2024/02/04 07:45:15;;;;;;;37.60;19.70;;;10.00;99.90;;;;;;5024075;28;20095;-79
2024/02/04 07:47:41;;;;;;;38.13;19.30;;;10.00;99.90;;;;;;5027427;28;20026;-79
2024/02/04 07:50:07;;;;;;;40.20;19.63;;;10.00;99.90;;;;;;5034528;28;20029;-78
2024/02/04 07:52:33;;;;;;;33.58;19.67;;;10.10;99.90;;;;;;5031490;28;20030;-78
2024/02/04 07:54:58;;;;;;;29.95;16.45;;;10.10;99.90;;;;;;5033339;28;20029;-78
2024/02/04 07:57:24;;;;;;;31.65;16.98;;;10.10;99.90;;;;;;5022646;28;20459;-78
2024/02/04 07:59:50;;;;;;;30.95;15.63;;;10.10;99.90;;;;;;5022850;28;20100;-78
2024/02/04 08:02:15;;;;;;;32.58;16.13;;;10.10;99.90;;;;;;5018022;28;20022;-78
2024/02/04 08:04:41;;;;;;;32.17;16.83;;;10.10;99.90;;;;;;5024354;28;20049;-78
2024/02/04 08:07:07;;;;;;;33.38;15.90;;;10.10;99.90;;;;;;5029256;28;20110;-79
2024/02/04 08:09:32;;;;;;;36.30;16.33;;;10.10;99.90;;;;;;5033637;28;20025;-79
2024/02/04 08:11:58;;;;;;;29.75;15.57;;;10.10;99.90;;;;;;5033647;28;20450;-78
2024/02/04 08:14:24;;;;;;;37.72;17.10;;;10.10;99.90;;;;;;5033805;28;20494;-77
2024/02/04 08:16:50;;;;;;;25.55;15.02;;;10.10;99.90;;;;;;5026304;28;20100;-78
2024/02/04 08:19:16;;;;;;;26.97;14.70;;;10.20;99.90;;;;;;5016466;28;20017;-79
2024/02/04 08:21:42;;;;;;;26.75;13.68;;;10.20;99.90;;;;;;5033183;28;20100;-82
2024/02/04 08:24:08;;;;;;;32.35;14.93;;;10.20;99.90;;;;;;5033221;28;20029;-82
2024/02/04 08:26:34;;;;;;;28.67;14.43;;;10.20;99.90;;;;;;5032827;28;20478;-82
2024/02/04 08:29:00;;;;;;;33.72;13.95;;;10.20;99.90;;;;;;5033104;28;20020;-81
2024/02/04 08:31:25;;;;;;;34.50;13.82;;;10.20;99.90;;;;;;5022800;28;20563;-82
2024/02/04 08:33:52;;;;;;;32.55;12.95;;;10.20;99.90;;;;;;5039764;28;20040;-82
2024/02/04 08:36:18;;;;;;;25.65;12.30;;;10.20;99.90;;;;;;5026113;28;20045;-82
2024/02/04 08:38:44;;;;;;;26.10;11.30;;;10.20;99.90;;;;;;5028109;28;20033;-82
2024/02/04 08:41:10;;;;;;;28.47;11.93;;;10.20;99.90;;;;;;5032841;28;20021;-83
2024/02/04 08:43:35;;;;;;;20.47;10.80;;;10.30;99.90;;;;;;5032733;28;20373;-82
2024/02/04 08:46:01;;;;;;;24.20;10.33;;;10.20;99.90;;;;;;5032547;28;20029;-82
2024/02/04 08:48:27;;;;;;;26.65;10.20;;;10.20;99.90;;;;;;5031076;28;20066;-82
2024/02/04 08:50:54;;;;;;;19.20;10.57;;;10.20;99.90;;;;;;5033042;28;20074;-82
2024/02/04 08:53:20;;;;;;;23.83;10.30;;;10.20;99.90;;;;;;5033209;28;20009;-82
2024/02/04 08:55:46;;;;;;;17.77;9.43;;;10.20;99.90;;;;;;5032291;28;20087;-83
2024/02/04 08:58:12;;;;;;;20.27;9.57;;;10.20;99.90;;;;;;5032916;28;20117;-83
2024/02/04 09:00:37;;;;;;;22.73;8.90;;;10.20;99.90;;;;;;5031701;28;20024;-82
2024/02/04 09:03:03;;;;;;;16.20;7.50;;;10.20;99.90;;;;;;5032702;28;20124;-82
2024/02/04 09:05:29;;;;;;;15.23;8.25;;;10.10;99.90;;;;;;5032354;28;20033;-83
2024/02/04 09:07:55;;;;;;;16.47;8.10;;;10.10;99.90;;;;;;5032883;28;20108;-82
2024/02/04 09:10:21;;;;;;;15.50;8.60;;;10.10;99.90;;;;;;5030965;28;20477;-82
2024/02/04 09:12:47;;;;;;;17.02;8.18;;;10.10;99.90;;;;;;5032832;28;20026;-82
2024/02/04 09:15:13;;;;;;;16.55;9.02;;;10.10;99.90;;;;;;5032220;28;20022;-83
2024/02/04 09:17:38;;;;;;;19.25;9.57;;;10.10;99.90;;;;;;5029546;28;20343;-83
2024/02/04 09:20:05;;;;;;;19.47;11.20;;;10.10;99.90;;;;;;5025177;28;20084;-82
2024/02/04 09:22:31;;;;;;;21.80;11.53;;;10.20;99.90;;;;;;5031392;28;20385;-83
2024/02/04 09:24:57;;;;;;;25.80;11.65;;;10.20;99.90;;;;;;5032502;28;20018;-82
2024/02/04 09:27:22;;;;;;;24.95;12.63;;;10.20;99.90;;;;;;5032113;28;20032;-81
2024/02/04 09:29:48;;;;;;;19.10;10.77;;;10.20;99.90;;;;;;5031153;28;20057;-82
2024/02/04 09:32:14;;;;;;;20.97;11.87;;;10.20;99.90;;;;;;5032256;28;20060;-83
2024/02/04 09:34:39;;;;;;;26.67;12.00;;;10.30;99.90;;;;;;5032765;28;20101;-82
2024/02/04 09:37:05;;;;;;;23.45;11.13;;;10.30;99.90;;;;;;5034612;28;20053;-80
2024/02/04 09:39:31;;;;;;;21.23;9.55;;;10.30;99.90;;;;;;5031678;28;20021;-81
2024/02/04 09:41:57;;;;;;;20.15;10.57;;;10.40;99.90;;;;;;5033111;28;20493;-80
2024/02/04 09:44:24;;;;;;;18.17;9.30;;;10.40;99.90;;;;;;5030639;28;20091;-83
2024/02/04 09:46:49;;;;;;;17.92;9.13;;;10.50;99.90;;;;;;5026226;28;20033;-82
2024/02/04 09:49:15;;;;;;;23.38;8.98;;;10.50;99.90;;;;;;5025953;28;20018;-81
2024/02/04 09:51:41;;;;;;;14.77;8.60;;;10.60;99.90;;;;;;5035845;28;20018;-81
2024/02/04 09:54:09;;;;;;;14.43;7.53;;;10.60;99.90;;;;;;5035812;28;20032;-81
2024/02/04 09:56:37;;;;;;;18.05;9.60;;;10.70;99.90;;;;;;5035721;28;20021;-82
2024/02/04 09:59:02;;;;;;;13.45;6.57;;;10.70;99.90;;;;;;5033883;28;20030;-82
2024/02/04 10:01:29;;;;;;;19.45;6.72;;;10.80;99.90;;;;;;5032756;28;20025;-82
2024/02/04 10:03:55;;;;;;;11.63;6.00;;;10.80;99.90;;;;;;5035942;28;20018;-81
2024/02/04 10:06:20;;;;;;;10.45;5.10;;;10.80;99.90;;;;;;5031701;28;20029;-81
2024/02/04 10:08:47;;;;;;;13.85;5.07;;;10.90;99.90;;;;;;5031428;28;20117;-81
2024/02/04 10:11:13;;;;;;;16.13;4.80;;;10.90;99.90;;;;;;5043011;28;20462;-81
2024/02/04 10:13:49;;;;;;;9.25;4.60;;;11.00;99.90;;;;;;5044202;28;20076;-81
2024/02/04 10:16:16;;;;;;;10.50;4.05;;;11.00;99.90;;;;;;5036622;28;20029;-83
2024/02/04 10:18:43;;;;;;;9.75;4.03;;;11.00;99.90;;;;;;5037504;28;20018;-80
2024/02/04 10:21:19;;;;;;;12.90;3.65;;;11.10;99.90;;;;;;5041079;28;20087;-81
2024/02/04 10:23:46;;;;;;;9.95;3.70;;;11.10;99.90;;;;;;5033097;28;20025;-83
2024/02/04 10:26:12;;;;;;;7.90;3.55;;;11.10;99.90;;;;;;5035738;28;20386;-81
2024/02/04 10:28:39;;;;;;;12.85;4.07;;;11.20;99.90;;;;;;5034221;28;20017;-81
2024/02/04 10:31:04;;;;;;;7.65;3.03;;;11.20;99.90;;;;;;5034454;28;20024;-82
2024/02/04 10:33:31;;;;;;;7.10;2.88;;;11.30;99.90;;;;;;5034571;28;20025;-81
2024/02/04 10:35:57;;;;;;;8.45;3.22;;;11.30;99.90;;;;;;5035724;28;20021;-82
2024/02/04 10:38:24;;;;;;;9.05;2.47;;;11.30;99.90;;;;;;5035117;28;20032;-82
2024/02/04 10:40:54;;;;;;;6.00;1.92;;;11.30;99.90;;;;;;5032227;28;20025;-80
2024/02/04 10:43:21;;;;;;;7.65;1.73;;;11.30;99.90;;;;;;5035865;28;20022;-80
2024/02/04 10:45:48;;;;;;;14.98;2.25;;;11.40;99.90;;;;;;5035246;28;20043;-81
2024/02/04 10:48:19;;;;;;;8.05;2.47;;;11.40;99.90;;;;;;5033523;28;20456;-80
2024/02/04 10:50:46;;;;;;;7.15;1.60;;;11.50;99.90;;;;;;5034989;28;20025;-80
2024/02/04 10:53:14;;;;;;;6.20;1.58;;;11.50;99.90;;;;;;5034001;28;20028;-80
2024/02/04 10:55:42;;;;;;;6.47;1.70;;;11.50;99.90;;;;;;5035412;28;20033;-80
2024/02/04 10:58:11;;;;;;;7.15;1.20;;;11.60;99.90;;;;;;5034804;28;20037;-80
2024/02/04 11:00:37;;;;;;;5.30;1.45;;;11.60;99.90;;;;;;5034990;28;20022;-80
2024/02/04 11:03:04;;;;;;;4.93;0.90;;;11.60;99.90;;;;;;5034794;28;20028;-81
2024/02/04 11:05:30;;;;;;;5.95;1.00;;;11.60;99.90;;;;;;5033760;28;20029;-80
2024/02/04 11:07:57;;;;;;;6.32;1.17;;;11.70;99.90;;;;;;5033774;28;20017;-80
2024/02/04 11:10:27;;;;;;;3.28;0.80;;;11.60;99.90;;;;;;5035389;28;20025;-80
2024/02/04 11:12:55;;;;;;;6.20;0.77;;;11.60;99.90;;;;;;5034916;28;20022;-80
2024/02/04 11:15:21;;;;;;;8.35;0.80;;;11.60;99.90;;;;;;5034017;28;20021;-79
2024/02/04 11:17:57;;;;;;;5.32;0.98;;;11.50;99.90;;;;;;5034986;28;20108;-79
2024/02/04 11:20:47;;;;;;;4.60;0.70;;;11.50;99.90;;;;;;5034780;28;20920;-86
2024/02/04 11:23:35;;;;;;;6.63;1.40;;;11.40;99.90;;;;;;5035416;28;20474;-86
2024/02/04 11:26:01;;;;;;;3.67;0.75;;;11.40;99.90;;;;;;5035600;28;20071;-84
2024/02/04 11:28:28;;;;;;;3.63;0.90;;;11.30;99.90;;;;;;5035147;28;20026;-86
2024/02/04 11:30:55;;;;;;;1.80;0.50;;;11.20;99.90;;;;;;5034955;28;20024;-89
2024/02/04 11:33:22;;;;;;;3.22;0.70;;;11.10;99.90;;;;;;5035181;28;20018;-85
2024/02/04 11:35:59;;;;;;;2.05;0.75;;;11.10;99.90;;;;;;5034945;28;20071;-87
2024/02/04 11:38:52;;;;;;;3.22;0.85;;;11.00;99.90;;;;;;5034863;28;20034;-84
2024/02/04 11:41:25;;;;;;;2.17;0.70;;;11.00;99.90;;;;;;5033530;28;20034;-86
2024/02/04 11:43:55;;;;;;;2.47;0.68;;;11.00;99.90;;;;;;5035043;28;20096;-85
2024/02/04 11:46:21;;;;;;;1.90;0.70;;;11.00;99.90;;;;;;5033562;28;20052;-86
2024/02/04 11:48:53;;;;;;;4.20;1.33;;;10.90;99.90;;;;;;5034009;28;20025;-86
2024/02/04 11:51:22;;;;;;;1.50;0.70;;;10.90;99.90;;;;;;5034572;28;20408;-86
2024/02/04 11:53:48;;;;;;;2.08;0.73;;;10.90;99.90;;;;;;5034780;28;20021;-86
2024/02/04 11:56:14;;;;;;;2.00;0.90;;;10.90;99.90;;;;;;5034625;28;20052;-86
2024/02/04 11:58:40;;;;;;;3.75;1.00;;;10.80;99.90;;;;;;5033355;28;20021;-86
2024/02/04 12:01:11;;;;;;;6.53;1.67;;;10.80;99.90;;;;;;5033987;28;20075;-83
2024/02/04 12:03:36;;;;;;;5.85;1.95;;;10.80;99.90;;;;;;5034716;28;20052;-85
2024/02/04 12:06:06;;;;;;;6.15;2.45;;;10.80;99.90;;;;;;5034384;28;20057;-89
2024/02/04 12:08:33;;;;;;;5.93;3.00;;;10.80;99.90;;;;;;5034317;28;20033;-85
2024/02/04 12:11:01;;;;;;;7.38;3.03;;;10.70;99.90;;;;;;5033575;28;20030;-84
2024/02/04 12:13:28;;;;;;;7.00;3.22;;;10.70;99.90;;;;;;5034182;28;20412;-84
2024/02/04 12:15:54;;;;;;;8.07;3.60;;;10.80;99.90;;;;;;5033222;28;20033;-88
2024/02/04 12:18:20;;;;;;;8.40;4.65;;;10.70;99.90;;;;;;5032897;28;20030;-85
2024/02/04 12:20:50;;;;;;;11.65;5.65;;;10.70;99.90;;;;;;5033978;28;20040;-84
2024/02/04 12:23:17;;;;;;;10.15;5.65;;;10.70;99.90;;;;;;5033590;28;20474;-84
2024/02/04 12:25:43;;;;;;;12.73;5.82;;;10.70;99.90;;;;;;5034926;28;20026;-85
2024/02/04 12:28:08;;;;;;;15.40;6.50;;;10.80;99.90;;;;;;5034124;28;20394;-84
2024/02/04 12:30:34;;;;;;;14.38;6.57;;;10.80;99.90;;;;;;5034311;28;20032;-84